sim
Sign-in with your pilot id or email,
or register
Callsign
Passwort

Schedule Details

Flight Number: DLH2094
Departure: Munich Airport (EDDM) at 10:45
Arrival: Hannover Langenhagen Airport (EDDV) at 11:50
Route: Lufthansa Passenger Schedule. Enter filed route here before submitting Pirep.

Weather Information
Getting current METAR information for EDDM 181420Z 09012KT CAVOK 19/09 Q1024 NOSIG
Getting current METAR information for EDDV 181420Z 08013KT CAVOK 20/04 Q1026 NOSIG

Schedule Frequency

Route Map